createdAt,value
2024-03-26T00:00:19.586Z,9.52
2024-03-26T00:01:19.583Z,9.52
2024-03-26T00:02:19.581Z,9.71
2024-03-26T00:03:19.606Z,9.61
2024-03-26T00:04:19.585Z,9.61
2024-03-26T00:05:19.595Z,9.71
2024-03-26T00:06:19.594Z,9.71
2024-03-26T00:07:19.602Z,9.71
2024-03-26T00:08:19.591Z,9.61
2024-03-26T00:09:19.593Z,9.71
2024-03-26T00:10:19.594Z,9.71
2024-03-26T00:11:19.596Z,9.81
2024-03-26T00:12:19.602Z,9.61
2024-03-26T00:13:19.601Z,9.71
2024-03-26T00:14:19.601Z,9.61
2024-03-26T00:15:19.603Z,9.71
2024-03-26T00:16:19.604Z,9.71
2024-03-26T00:17:19.618Z,9.81
2024-03-26T00:18:19.607Z,9.71
2024-03-26T00:19:19.650Z,9.61
2024-03-26T00:20:19.610Z,9.71
2024-03-26T00:21:21.616Z,9.71
2024-03-26T00:22:19.614Z,9.61
2024-03-26T00:23:19.618Z,9.61
2024-03-26T00:24:19.621Z,9.71
2024-03-26T00:25:19.622Z,9.81
2024-03-26T00:26:19.618Z,9.81
2024-03-26T00:27:19.629Z,9.71
2024-03-26T00:28:19.622Z,9.81
2024-03-26T00:29:19.630Z,9.52
2024-03-26T00:30:19.624Z,9.81
2024-03-26T00:31:19.630Z,9.61
2024-03-26T00:32:19.651Z,9.81
2024-03-26T00:33:19.634Z,9.61
2024-03-26T00:34:19.640Z,9.52
2024-03-26T00:35:19.651Z,9.61
2024-03-26T00:36:19.635Z,9.81
2024-03-26T00:37:19.638Z,9.71
2024-03-26T00:38:19.639Z,9.61
2024-03-26T00:39:19.641Z,9.71
2024-03-26T00:40:19.640Z,9.61
2024-03-26T00:41:19.643Z,9.81
2024-03-26T00:42:19.647Z,9.61
2024-03-26T00:43:19.663Z,9.52
2024-03-26T00:44:19.648Z,9.61
2024-03-26T00:45:19.652Z,9.71
2024-03-26T00:46:19.651Z,9.61
2024-03-26T00:47:19.654Z,9.71
2024-03-26T00:48:19.656Z,9.61
2024-03-26T00:49:19.657Z,9.71
2024-03-26T00:50:19.660Z,9.61
2024-03-26T00:51:19.677Z,9.52
2024-03-26T00:52:19.661Z,9.61
2024-03-26T00:53:19.663Z,9.61
2024-03-26T00:54:19.664Z,9.61
2024-03-26T00:55:19.667Z,9.61
2024-03-26T00:56:19.669Z,9.52
2024-03-26T00:57:19.671Z,9.61
2024-03-26T00:58:19.671Z,9.71
2024-03-26T00:59:19.682Z,9.61
2024-03-26T01:00:19.677Z,9.52
2024-03-26T01:01:19.679Z,9.71
2024-03-26T01:02:19.678Z,9.71
2024-03-26T01:03:19.687Z,9.52
2024-03-26T01:04:19.679Z,9.61
2024-03-26T01:05:19.681Z,9.71
2024-03-26T01:06:19.683Z,9.71
2024-03-26T01:07:20.563Z,9.61
2024-03-26T01:08:19.686Z,9.52
2024-03-26T01:09:19.698Z,9.61
2024-03-26T01:10:19.702Z,9.52
2024-03-26T01:11:19.689Z,9.71
2024-03-26T01:12:19.693Z,9.81
2024-03-26T01:13:19.699Z,9.71
2024-03-26T01:14:19.704Z,9.61
2024-03-26T01:15:19.725Z,9.71
2024-03-26T01:16:19.704Z,9.71
2024-03-26T01:17:19.716Z,9.61
2024-03-26T01:18:19.720Z,9.61
2024-03-26T01:19:19.717Z,9.81
2024-03-26T01:20:19.716Z,9.61
2024-03-26T01:21:22.889Z,9.71
2024-03-26T01:22:19.708Z,9.61
2024-03-26T01:23:19.743Z,9.81
2024-03-26T01:24:19.712Z,9.52
2024-03-26T01:25:19.716Z,9.71
2024-03-26T01:26:19.717Z,9.81
2024-03-26T01:27:19.718Z,9.61
2024-03-26T01:28:19.718Z,9.61
2024-03-26T01:29:19.723Z,9.71
2024-03-26T01:30:19.738Z,9.61
2024-03-26T01:31:19.724Z,9.71
2024-03-26T01:32:19.724Z,9.71
2024-03-26T01:33:19.731Z,9.71
2024-03-26T01:34:19.729Z,9.71
2024-03-26T01:35:19.732Z,9.71
2024-03-26T01:36:19.730Z,9.61
2024-03-26T01:37:19.734Z,9.61
2024-03-26T01:38:19.738Z,9.61
2024-03-26T01:39:19.767Z,9.71
2024-03-26T01:40:19.739Z,9.71
2024-03-26T01:41:19.753Z,9.61
2024-03-26T01:42:19.740Z,9.61
2024-03-26T01:43:19.740Z,9.61
2024-03-26T01:44:19.754Z,9.61
2024-03-26T01:45:19.758Z,9.61
2024-03-26T01:46:19.764Z,9.61
2024-03-26T01:47:19.758Z,9.61
2024-03-26T01:48:19.764Z,9.61
2024-03-26T01:49:19.750Z,9.52
2024-03-26T01:50:19.756Z,9.71
2024-03-26T01:51:19.755Z,9.61
2024-03-26T01:52:19.756Z,9.61
2024-03-26T01:53:19.756Z,9.61
2024-03-26T01:54:19.762Z,9.52
2024-03-26T01:55:19.788Z,9.61
2024-03-26T01:56:19.762Z,9.71
2024-03-26T01:57:19.761Z,9.52
2024-03-26T01:58:19.763Z,9.61
2024-03-26T01:59:19.766Z,9.52
2024-03-26T02:00:19.764Z,9.61
2024-03-26T02:01:19.781Z,9.52
2024-03-26T02:02:19.775Z,9.61
2024-03-26T02:03:19.786Z,9.61
2024-03-26T02:04:19.776Z,9.61
2024-03-26T02:05:19.786Z,9.61
2024-03-26T02:06:19.784Z,9.52
2024-03-26T02:07:19.788Z,9.52
2024-03-26T02:08:19.778Z,9.61
2024-03-26T02:09:19.781Z,9.52
2024-03-26T02:10:19.803Z,9.61
2024-03-26T02:11:19.816Z,9.52
2024-03-26T02:12:19.784Z,9.52
2024-03-26T02:13:19.791Z,9.42
2024-03-26T02:14:19.787Z,9.42
2024-03-26T02:15:19.792Z,9.52
2024-03-26T02:16:19.790Z,9.52
2024-03-26T02:17:19.794Z,9.52
2024-03-26T02:18:19.796Z,9.52
2024-03-26T02:19:19.798Z,9.52
2024-03-26T02:20:19.796Z,9.52
2024-03-26T02:21:19.801Z,9.52
2024-03-26T02:22:19.804Z,9.52
2024-03-26T02:23:19.803Z,9.61
2024-03-26T02:24:19.808Z,9.42
2024-03-26T02:25:19.812Z,9.52
2024-03-26T02:26:19.811Z,9.42
2024-03-26T02:27:19.832Z,9.42
2024-03-26T02:28:19.818Z,9.42
2024-03-26T02:29:19.811Z,9.42
2024-03-26T02:30:19.815Z,9.42
2024-03-26T02:31:19.823Z,9.42
2024-03-26T02:32:19.825Z,9.52
2024-03-26T02:33:19.818Z,9.42
2024-03-26T02:34:19.819Z,9.52
2024-03-26T02:35:19.823Z,9.42
2024-03-26T02:36:19.827Z,9.52
2024-03-26T02:37:19.825Z,9.61
2024-03-26T02:38:19.826Z,9.61
2024-03-26T02:39:19.832Z,9.71
2024-03-26T02:40:19.876Z,9.61
2024-03-26T02:41:19.829Z,9.71
2024-03-26T02:42:19.832Z,9.61
2024-03-26T02:43:19.849Z,9.61
2024-03-26T02:44:19.832Z,9.71
2024-03-26T02:45:19.838Z,9.71
2024-03-26T02:46:19.835Z,9.81
2024-03-26T02:47:19.841Z,9.81
2024-03-26T02:48:19.839Z,9.71
2024-03-26T02:49:19.841Z,9.81
2024-03-26T02:50:19.843Z,9.61
2024-03-26T02:51:19.848Z,9.81
2024-03-26T02:52:19.845Z,9.71
2024-03-26T02:53:19.848Z,9.61
2024-03-26T02:54:19.850Z,9.71
2024-03-26T02:55:19.856Z,9.71
2024-03-26T02:56:19.853Z,9.71
2024-03-26T02:57:19.859Z,9.71
2024-03-26T02:58:19.856Z,9.71
2024-03-26T02:59:19.870Z,9.52
2024-03-26T03:00:19.858Z,9.52
2024-03-26T03:01:19.865Z,9.71
2024-03-26T03:02:19.867Z,9.71
2024-03-26T03:03:19.870Z,9.61
2024-03-26T03:04:19.864Z,9.81
2024-03-26T03:05:19.875Z,9.71
2024-03-26T03:06:19.871Z,9.71
2024-03-26T03:07:19.872Z,9.71
2024-03-26T03:08:19.873Z,9.71
2024-03-26T03:09:19.871Z,9.71
2024-03-26T03:10:19.873Z,9.52
2024-03-26T03:11:19.877Z,9.52
2024-03-26T03:12:19.879Z,9.52
2024-03-26T03:13:19.881Z,9.52
2024-03-26T03:14:19.880Z,9.72
2024-03-26T03:15:19.896Z,9.52
2024-03-26T03:16:19.884Z,9.42
2024-03-26T03:17:19.888Z,9.52
2024-03-26T03:18:19.885Z,9.42
2024-03-26T03:19:19.891Z,9.42
2024-03-26T03:20:19.886Z,9.42
2024-03-26T03:21:19.892Z,9.42
2024-03-26T03:22:19.895Z,9.42
2024-03-26T03:23:19.897Z,9.42
2024-03-26T03:24:19.895Z,9.52
2024-03-26T03:25:19.895Z,9.52
2024-03-26T03:26:19.900Z,9.52
2024-03-26T03:27:19.903Z,9.52
2024-03-26T03:28:19.899Z,9.42
2024-03-26T03:29:19.903Z,9.52
2024-03-26T03:30:19.923Z,9.52
2024-03-26T03:31:19.920Z,9.52
2024-03-26T03:32:19.909Z,9.52
2024-03-26T03:33:19.930Z,9.42
2024-03-26T03:34:19.915Z,9.61
2024-03-26T03:35:19.928Z,9.61
2024-03-26T03:36:19.915Z,9.42
2024-03-26T03:37:19.916Z,9.52
2024-03-26T03:38:19.916Z,9.61
2024-03-26T03:39:19.928Z,9.42
2024-03-26T03:40:19.919Z,9.61
2024-03-26T03:41:19.924Z,9.52
2024-03-26T03:42:19.922Z,9.52
2024-03-26T03:43:19.929Z,9.42
2024-03-26T03:44:19.925Z,9.52
2024-03-26T03:45:19.946Z,9.52
2024-03-26T03:46:19.930Z,9.52
2024-03-26T03:47:19.959Z,9.42
2024-03-26T03:48:19.928Z,9.52
2024-03-26T03:49:19.931Z,9.52
2024-03-26T03:50:19.950Z,9.42
2024-03-26T03:51:19.936Z,9.42
2024-03-26T03:52:19.936Z,9.32
2024-03-26T03:53:19.937Z,9.32
2024-03-26T03:54:19.942Z,9.42
2024-03-26T03:55:19.939Z,9.42
2024-03-26T03:56:19.945Z,9.42
2024-03-26T03:57:19.949Z,9.42
2024-03-26T03:58:19.946Z,9.52
2024-03-26T03:59:19.946Z,9.42
2024-03-26T04:00:19.953Z,9.42
2024-03-26T04:01:19.948Z,9.42
2024-03-26T04:02:19.957Z,9.52
2024-03-26T04:03:19.967Z,9.71
2024-03-26T04:04:19.957Z,9.71
2024-03-26T04:05:19.954Z,9.71
2024-03-26T04:06:19.955Z,9.52
2024-03-26T04:07:19.955Z,9.52
2024-03-26T04:08:19.965Z,9.61
2024-03-26T04:09:19.958Z,9.81
2024-03-26T04:10:19.966Z,9.81
2024-03-26T04:11:19.961Z,9.81
2024-03-26T04:12:19.967Z,9.81
2024-03-26T04:13:19.965Z,9.81
2024-03-26T04:14:19.967Z,9.71
2024-03-26T04:15:19.970Z,9.81
2024-03-26T04:16:19.992Z,10.10
2024-03-26T04:17:19.970Z,9.61
2024-03-26T04:18:19.972Z,9.91
2024-03-26T04:19:20.042Z,9.61
2024-03-26T04:20:19.974Z,9.61
2024-03-26T04:21:19.974Z,9.71
2024-03-26T04:22:19.979Z,10.10
2024-03-26T04:23:19.981Z,9.91
2024-03-26T04:24:20.229Z,9.71
2024-03-26T04:25:19.983Z,10.10
2024-03-26T04:26:19.983Z,10.10
2024-03-26T04:27:19.983Z,10.00
2024-03-26T04:28:19.985Z,10.00
2024-03-26T04:29:19.984Z,9.61
2024-03-26T04:30:19.987Z,10.19
2024-03-26T04:31:19.990Z,9.91
2024-03-26T04:32:19.989Z,10.10
2024-03-26T04:33:19.990Z,9.91
2024-03-26T04:34:19.998Z,9.71
2024-03-26T04:35:20.025Z,9.90
2024-03-26T04:36:19.997Z,9.90
2024-03-26T04:37:20.060Z,9.61
2024-03-26T04:38:20.005Z,9.91
2024-03-26T04:39:19.998Z,9.91
2024-03-26T04:40:20.003Z,9.91
2024-03-26T04:41:20.001Z,9.91
2024-03-26T04:42:20.003Z,9.80
2024-03-26T04:43:20.005Z,10.00
2024-03-26T04:44:20.005Z,10.10
2024-03-26T04:45:20.022Z,9.71
2024-03-26T04:46:20.012Z,10.19
2024-03-26T04:47:20.016Z,10.10
2024-03-26T04:48:20.013Z,9.70
2024-03-26T04:49:20.013Z,10.10
2024-03-26T04:50:20.018Z,10.10
2024-03-26T04:51:20.038Z,9.61
2024-03-26T04:52:20.020Z,9.71
2024-03-26T04:53:20.020Z,10.00
2024-03-26T04:54:20.023Z,9.91
2024-03-26T04:55:20.022Z,9.61
2024-03-26T04:56:20.022Z,10.00
2024-03-26T04:57:20.029Z,9.71
2024-03-26T04:58:20.025Z,9.81
2024-03-26T04:59:20.026Z,9.71
2024-03-26T05:00:20.032Z,9.81
2024-03-26T05:01:20.037Z,9.81
2024-03-26T05:02:20.031Z,9.81
2024-03-26T05:03:20.031Z,9.91
2024-03-26T05:04:20.032Z,9.61
2024-03-26T05:05:20.034Z,10.00
2024-03-26T05:06:20.034Z,9.81
2024-03-26T05:07:20.054Z,9.81
2024-03-26T05:08:20.046Z,10.00
2024-03-26T05:09:20.048Z,9.81
2024-03-26T05:10:20.043Z,9.81
2024-03-26T05:11:20.043Z,10.00
2024-03-26T05:12:20.051Z,10.10
2024-03-26T05:13:20.044Z,10.19
2024-03-26T05:14:20.048Z,10.00
2024-03-26T05:15:20.049Z,10.10
2024-03-26T05:16:20.049Z,9.71
2024-03-26T05:17:20.052Z,9.81
2024-03-26T05:18:20.055Z,9.91
2024-03-26T05:19:20.054Z,9.91
2024-03-26T05:20:20.056Z,9.81
2024-03-26T05:21:20.055Z,9.91
2024-03-26T05:22:20.060Z,9.91
2024-03-26T05:23:20.079Z,10.19
2024-03-26T05:24:20.060Z,10.00
2024-03-26T05:25:20.062Z,9.61
2024-03-26T05:26:20.069Z,9.71
2024-03-26T05:27:20.081Z,10.19
2024-03-26T05:28:20.077Z,9.91
2024-03-26T05:29:20.070Z,9.71
2024-03-26T05:30:20.074Z,9.91
2024-03-26T05:31:20.087Z,9.91
2024-03-26T05:32:20.079Z,9.81
2024-03-26T05:33:20.084Z,9.91
2024-03-26T05:34:23.182Z,9.91
2024-03-26T05:35:20.102Z,10.00
2024-03-26T05:36:20.102Z,9.91
2024-03-26T05:37:20.087Z,9.91
2024-03-26T05:38:20.096Z,9.71
2024-03-26T05:39:20.109Z,9.61
2024-03-26T05:40:20.081Z,9.81
2024-03-26T05:41:20.088Z,10.10
2024-03-26T05:42:20.098Z,9.61
2024-03-26T05:43:20.090Z,10.10
2024-03-26T05:44:20.089Z,9.71
2024-03-26T05:45:20.098Z,10.10
2024-03-26T05:46:20.100Z,9.91
2024-03-26T05:47:20.110Z,9.91
2024-03-26T05:48:20.115Z,9.91
2024-03-26T05:49:20.098Z,9.71
2024-03-26T05:50:20.107Z,9.61
2024-03-26T05:51:20.102Z,9.91
2024-03-26T05:52:20.109Z,9.91
2024-03-26T05:53:20.104Z,9.71
2024-03-26T05:54:20.107Z,9.71
2024-03-26T05:55:20.153Z,10.10
2024-03-26T05:56:20.109Z,9.91
2024-03-26T05:57:20.111Z,9.81
2024-03-26T05:58:20.110Z,9.91
2024-03-26T05:59:20.117Z,10.10
2024-03-26T06:00:20.135Z,10.00
2024-03-26T06:01:20.123Z,10.00
2024-03-26T06:02:20.115Z,9.81
2024-03-26T06:03:20.122Z,9.91
2024-03-26T06:04:20.115Z,10.10
2024-03-26T06:05:20.120Z,9.61
2024-03-26T06:06:20.124Z,9.91
2024-03-26T06:07:20.135Z,10.00
2024-03-26T06:08:20.124Z,9.81
2024-03-26T06:09:20.127Z,9.91
2024-03-26T06:10:20.132Z,9.91
2024-03-26T06:11:20.150Z,10.00
2024-03-26T06:12:20.129Z,9.81
2024-03-26T06:13:20.130Z,9.91
2024-03-26T06:14:20.134Z,9.91
2024-03-26T06:15:20.133Z,9.91
2024-03-26T06:16:20.137Z,9.81
2024-03-26T06:17:20.141Z,10.00
2024-03-26T06:18:20.140Z,10.00
2024-03-26T06:19:20.156Z,10.00
2024-03-26T06:20:20.147Z,10.00
2024-03-26T06:21:20.149Z,10.00
2024-03-26T06:22:20.144Z,9.91
2024-03-26T06:23:20.145Z,10.00
2024-03-26T06:24:20.148Z,9.81
2024-03-26T06:25:20.149Z,9.91
2024-03-26T06:26:20.155Z,9.91
2024-03-26T06:27:20.174Z,10.00
2024-03-26T06:28:20.161Z,9.91
2024-03-26T06:29:20.154Z,9.91
2024-03-26T06:30:20.159Z,10.00
2024-03-26T06:31:20.164Z,9.81
2024-03-26T06:32:20.162Z,10.00
2024-03-26T06:33:21.789Z,9.91
2024-03-26T06:34:20.172Z,10.00
2024-03-26T06:35:20.168Z,10.00
2024-03-26T06:36:20.172Z,9.81
2024-03-26T06:37:20.182Z,9.91
2024-03-26T06:38:20.171Z,9.81
2024-03-26T06:39:20.184Z,9.81
2024-03-26T06:40:20.180Z,9.91
2024-03-26T06:41:20.181Z,10.00
2024-03-26T06:42:20.200Z,10.00
2024-03-26T06:43:20.201Z,9.91
2024-03-26T06:44:20.184Z,9.81
2024-03-26T06:45:20.185Z,9.81
2024-03-26T06:46:22.439Z,9.81
2024-03-26T06:47:20.189Z,10.00
2024-03-26T06:48:20.190Z,10.00
2024-03-26T06:49:20.189Z,9.91
2024-03-26T06:50:20.194Z,10.00
2024-03-26T06:51:20.197Z,10.10
2024-03-26T06:52:20.195Z,9.81
2024-03-26T06:53:20.196Z,9.62
2024-03-26T06:54:20.199Z,9.62
2024-03-26T06:55:20.208Z,9.81
2024-03-26T06:56:20.201Z,9.72
2024-03-26T06:57:20.201Z,9.62
2024-03-26T06:58:20.207Z,9.52
2024-03-26T06:59:20.229Z,9.72
2024-03-26T07:00:20.214Z,9.72
2024-03-26T07:01:20.210Z,9.81
2024-03-26T07:02:20.212Z,9.81
2024-03-26T07:03:20.213Z,9.81
2024-03-26T07:04:20.214Z,9.72
2024-03-26T07:05:20.217Z,9.62
2024-03-26T07:06:20.225Z,9.81
2024-03-26T07:07:20.231Z,9.72
2024-03-26T07:08:20.222Z,9.81
2024-03-26T07:09:20.251Z,9.52
2024-03-26T07:10:20.240Z,9.81
2024-03-26T07:11:20.226Z,9.81
2024-03-26T07:12:20.229Z,9.72
2024-03-26T07:13:20.230Z,9.52
2024-03-26T07:14:20.231Z,9.62
2024-03-26T07:15:20.251Z,9.72
2024-03-26T07:16:20.235Z,9.72
2024-03-26T07:17:20.239Z,9.81
2024-03-26T07:18:20.245Z,9.72
2024-03-26T07:19:20.241Z,9.81
2024-03-26T07:20:20.247Z,9.81
2024-03-26T07:21:20.243Z,9.81
2024-03-26T07:22:20.248Z,9.81
2024-03-26T07:23:20.248Z,9.72
2024-03-26T07:24:20.250Z,10.00
2024-03-26T07:25:20.257Z,9.72
2024-03-26T07:26:20.255Z,9.62
2024-03-26T07:27:20.255Z,9.72
2024-03-26T07:28:20.257Z,10.20
2024-03-26T07:29:20.257Z,10.10
2024-03-26T07:30:20.260Z,9.91
2024-03-26T07:31:20.285Z,10.00
2024-03-26T07:32:20.263Z,9.91
2024-03-26T07:33:20.276Z,9.81
2024-03-26T07:34:20.286Z,9.91
2024-03-26T07:35:20.269Z,9.91
2024-03-26T07:36:20.270Z,9.81
2024-03-26T07:37:20.270Z,9.72
2024-03-26T07:38:20.274Z,10.00
2024-03-26T07:39:20.273Z,9.91
2024-03-26T07:40:20.277Z,10.00
2024-03-26T07:41:20.279Z,9.81
2024-03-26T07:42:20.280Z,9.91
2024-03-26T07:43:23.933Z,10.00
2024-03-26T07:44:20.290Z,10.00
2024-03-26T07:45:20.281Z,9.91
2024-03-26T07:46:20.287Z,10.10
2024-03-26T07:47:20.342Z,10.10
2024-03-26T07:48:22.220Z,10.10
2024-03-26T07:49:20.343Z,10.10
2024-03-26T07:50:20.318Z,10.20
2024-03-26T07:51:21.947Z,10.10
2024-03-26T07:52:20.297Z,10.20
2024-03-26T07:53:20.299Z,10.10
2024-03-26T07:54:20.360Z,10.20
2024-03-26T07:55:20.306Z,10.20
2024-03-26T07:56:20.303Z,10.20
2024-03-26T07:57:20.304Z,10.20
2024-03-26T07:58:20.307Z,10.20
2024-03-26T07:59:20.395Z,10.20
2024-03-26T08:00:20.312Z,10.30
2024-03-26T08:01:20.315Z,10.30
2024-03-26T08:02:20.336Z,10.20
2024-03-26T08:03:20.347Z,10.10
2024-03-26T08:04:20.335Z,10.30
2024-03-26T08:05:20.335Z,10.20
2024-03-26T08:06:20.368Z,10.30
2024-03-26T08:07:20.322Z,10.30
2024-03-26T08:08:20.386Z,10.20
2024-03-26T08:09:20.328Z,10.30
2024-03-26T08:10:20.329Z,10.10
2024-03-26T08:11:20.333Z,10.20
2024-03-26T08:12:20.328Z,10.00
2024-03-26T08:13:20.331Z,10.10
2024-03-26T08:14:20.391Z,10.10
2024-03-26T08:15:20.389Z,10.20
2024-03-26T08:16:20.342Z,10.10
2024-03-26T08:17:20.397Z,10.20
2024-03-26T08:18:20.378Z,10.00
2024-03-26T08:19:20.352Z,10.10
2024-03-26T08:20:20.350Z,10.20
2024-03-26T08:21:20.416Z,10.20
2024-03-26T08:22:20.417Z,10.20
2024-03-26T08:23:20.347Z,10.10
2024-03-26T08:24:20.385Z,10.00
2024-03-26T08:25:20.350Z,10.00
2024-03-26T08:26:20.352Z,10.10
2024-03-26T08:27:20.354Z,10.10
2024-03-26T08:28:20.517Z,10.00
2024-03-26T08:29:20.367Z,10.10
2024-03-26T08:30:20.367Z,10.10
2024-03-26T08:31:20.363Z,10.20
2024-03-26T08:32:20.361Z,10.10
2024-03-26T08:33:20.364Z,10.10
2024-03-26T08:34:20.364Z,10.20
2024-03-26T08:35:20.710Z,10.00
2024-03-26T08:36:20.369Z,10.00
2024-03-26T08:37:20.372Z,10.00
2024-03-26T08:38:20.439Z,10.10
2024-03-26T08:39:20.371Z,10.11
2024-03-26T08:40:20.390Z,10.20
2024-03-26T08:41:20.377Z,10.20
2024-03-26T08:42:20.383Z,10.20
2024-03-26T08:43:20.402Z,10.20
2024-03-26T08:44:20.381Z,10.10
2024-03-26T08:45:20.384Z,10.20
2024-03-26T08:46:20.394Z,10.30
2024-03-26T08:47:20.391Z,10.20
2024-03-26T08:48:20.390Z,10.20
2024-03-26T08:49:20.395Z,10.30
2024-03-26T08:50:20.394Z,10.10
2024-03-26T08:51:20.413Z,10.30
2024-03-26T08:52:20.399Z,10.10
2024-03-26T08:53:20.399Z,10.20
2024-03-26T08:54:20.402Z,10.39
2024-03-26T08:55:20.404Z,10.39
2024-03-26T08:56:25.183Z,10.20
2024-03-26T08:57:20.406Z,10.20
2024-03-26T08:58:22.761Z,10.20
2024-03-26T08:59:20.438Z,10.20
2024-03-26T09:00:20.414Z,10.20
2024-03-26T09:01:20.420Z,10.10
2024-03-26T09:02:20.427Z,10.30
2024-03-26T09:03:20.423Z,10.30
2024-03-26T09:04:21.944Z,10.10
2024-03-26T09:05:20.423Z,10.10
2024-03-26T09:06:20.423Z,10.10
2024-03-26T09:07:20.574Z,10.39
2024-03-26T09:08:20.427Z,10.10
2024-03-26T09:09:20.445Z,10.20
2024-03-26T09:10:20.435Z,10.30
2024-03-26T09:11:20.438Z,10.20
2024-03-26T09:12:20.434Z,10.30
2024-03-26T09:13:20.438Z,10.20
2024-03-26T09:14:20.444Z,10.20
2024-03-26T09:15:20.462Z,10.30
2024-03-26T09:16:20.443Z,10.49
2024-03-26T09:17:20.451Z,10.39
2024-03-26T09:18:20.449Z,10.39
2024-03-26T09:19:20.460Z,10.49
2024-03-26T09:20:20.449Z,10.39
2024-03-26T09:21:20.454Z,10.49
2024-03-26T09:22:20.452Z,10.49
2024-03-26T09:23:20.471Z,10.39
2024-03-26T09:24:20.467Z,10.49
2024-03-26T09:25:20.458Z,10.49
2024-03-26T09:26:20.459Z,10.59
2024-03-26T09:27:20.463Z,10.39
2024-03-26T09:28:20.468Z,10.49
2024-03-26T09:29:20.496Z,10.49
2024-03-26T09:30:20.467Z,10.49
2024-03-26T09:31:20.471Z,10.49
2024-03-26T09:32:20.476Z,10.49
2024-03-26T09:33:20.474Z,10.59
2024-03-26T09:34:20.472Z,10.49
2024-03-26T09:35:20.476Z,10.39
2024-03-26T09:36:20.476Z,10.59
2024-03-26T09:37:20.485Z,10.59
2024-03-26T09:38:29.365Z,10.78
2024-03-26T09:39:20.515Z,10.78
2024-03-26T09:40:20.486Z,10.78
2024-03-26T09:41:20.487Z,10.59
2024-03-26T09:42:20.487Z,10.59
2024-03-26T09:43:22.465Z,10.69
2024-03-26T09:44:20.492Z,10.69
2024-03-26T09:45:20.526Z,10.69
2024-03-26T09:46:20.495Z,10.59
2024-03-26T09:47:20.497Z,10.69
2024-03-26T09:48:20.504Z,10.49
2024-03-26T09:49:20.500Z,10.59
2024-03-26T09:50:20.535Z,10.39
2024-03-26T09:51:20.506Z,10.78
2024-03-26T09:52:20.504Z,10.88
2024-03-26T09:53:20.507Z,10.88
2024-03-26T09:54:20.506Z,10.78
2024-03-26T09:55:20.524Z,10.88
2024-03-26T09:56:20.523Z,11.08
2024-03-26T09:57:20.537Z,10.78
2024-03-26T09:58:20.511Z,10.98
2024-03-26T09:59:20.526Z,10.98
2024-03-26T10:00:20.526Z,10.88
2024-03-26T10:01:20.518Z,10.98
2024-03-26T10:02:20.522Z,10.78
2024-03-26T10:03:20.538Z,10.78
2024-03-26T10:04:20.522Z,10.88
2024-03-26T10:05:20.524Z,11.18
2024-03-26T10:06:20.524Z,11.18
2024-03-26T10:07:20.530Z,11.36
2024-03-26T10:08:20.531Z,11.27
2024-03-26T10:09:20.532Z,11.27
2024-03-26T10:10:20.531Z,11.36
2024-03-26T10:11:20.550Z,11.18
2024-03-26T10:12:20.542Z,11.27
2024-03-26T10:13:20.539Z,11.36
2024-03-26T10:14:20.543Z,11.46
2024-03-26T10:15:20.558Z,11.36
2024-03-26T10:16:20.540Z,11.46
2024-03-26T10:17:20.543Z,11.46
2024-03-26T10:18:20.546Z,11.66
2024-03-26T10:19:20.548Z,11.66
2024-03-26T10:20:20.547Z,11.76
2024-03-26T10:21:20.550Z,11.56
2024-03-26T10:22:20.558Z,11.56
2024-03-26T10:23:20.552Z,11.36
2024-03-26T10:24:20.551Z,11.46
2024-03-26T10:25:20.554Z,11.56
2024-03-26T10:26:20.561Z,11.66
2024-03-26T10:27:20.579Z,11.76
2024-03-26T10:28:20.558Z,11.76
2024-03-26T10:29:20.561Z,11.85
2024-03-26T10:30:20.561Z,11.85
2024-03-26T10:31:20.575Z,11.66
2024-03-26T10:32:20.568Z,11.65
2024-03-26T10:33:20.569Z,11.94
2024-03-26T10:34:20.578Z,12.14
2024-03-26T10:35:20.606Z,12.04
2024-03-26T10:36:20.571Z,12.44
2024-03-26T10:37:20.572Z,12.34
2024-03-26T10:38:20.574Z,12.14
2024-03-26T10:39:20.582Z,12.43
2024-03-26T10:40:20.592Z,12.62
2024-03-26T10:41:20.580Z,12.34
2024-03-26T10:42:20.579Z,12.24
2024-03-26T10:43:20.598Z,12.52
2024-03-26T10:44:20.585Z,12.62
2024-03-26T10:45:34.155Z,12.43
2024-03-26T10:46:20.590Z,12.43
2024-03-26T10:47:20.593Z,12.52
2024-03-26T10:48:20.591Z,12.52
2024-03-26T10:49:20.593Z,12.52
2024-03-26T10:50:20.597Z,12.43
2024-03-26T10:51:20.595Z,12.52
2024-03-26T10:52:20.596Z,12.52
2024-03-26T10:53:22.621Z,12.52
2024-03-26T10:54:20.600Z,12.62
2024-03-26T10:55:20.600Z,12.52
2024-03-26T10:56:20.605Z,12.62
2024-03-26T10:57:20.602Z,12.52
2024-03-26T10:58:20.612Z,12.62
2024-03-26T10:59:20.616Z,12.52
2024-03-26T11:00:20.625Z,12.72
2024-03-26T11:01:22.535Z,12.52
2024-03-26T11:02:20.612Z,12.52
2024-03-26T11:03:20.613Z,12.52
2024-03-26T11:04:20.612Z,12.72
2024-03-26T11:05:20.613Z,12.52
2024-03-26T11:06:20.622Z,12.52
2024-03-26T11:07:20.617Z,12.52
2024-03-26T11:08:20.623Z,12.72
2024-03-26T11:09:20.620Z,12.72
2024-03-26T11:10:20.625Z,12.63
2024-03-26T11:11:20.648Z,12.44
2024-03-26T11:12:20.624Z,12.43
2024-03-26T11:13:20.628Z,12.44
2024-03-26T11:14:20.628Z,12.63
2024-03-26T11:15:20.651Z,12.43
2024-03-26T11:16:20.628Z,12.24
2024-03-26T11:17:20.631Z,12.24
2024-03-26T11:18:20.634Z,12.34
2024-03-26T11:19:20.637Z,12.24
2024-03-26T11:20:20.635Z,12.15
2024-03-26T11:21:20.638Z,12.34
2024-03-26T11:22:20.642Z,12.15
2024-03-26T11:23:20.648Z,12.15
2024-03-26T11:24:20.649Z,12.05
2024-03-26T11:25:20.649Z,12.15
2024-03-26T11:26:20.644Z,11.76
2024-03-26T11:27:20.650Z,12.05
2024-03-26T11:28:20.648Z,11.95
2024-03-26T11:29:20.680Z,11.76
2024-03-26T11:30:20.657Z,11.76
2024-03-26T11:31:20.667Z,11.66
2024-03-26T11:32:20.661Z,11.56
2024-03-26T11:33:20.659Z,11.46
2024-03-26T11:34:20.659Z,11.66
2024-03-26T11:35:20.665Z,11.56
2024-03-26T11:36:20.662Z,11.56
2024-03-26T11:37:20.664Z,11.66
2024-03-26T11:38:20.671Z,11.56
2024-03-26T11:39:20.669Z,11.56
2024-03-26T11:40:20.670Z,11.56
2024-03-26T11:41:20.672Z,11.56
2024-03-26T11:42:20.673Z,11.56
2024-03-26T11:43:20.676Z,11.76
2024-03-26T11:44:20.678Z,11.46
2024-03-26T11:45:20.679Z,11.56
2024-03-26T11:46:20.676Z,11.46
2024-03-26T11:47:20.710Z,11.46
2024-03-26T11:48:20.681Z,11.36
2024-03-26T11:49:20.682Z,11.36
2024-03-26T11:50:20.686Z,11.27
2024-03-26T11:51:20.689Z,11.36
2024-03-26T11:52:20.686Z,11.46
2024-03-26T11:53:20.690Z,11.46
2024-03-26T11:54:20.690Z,11.56
2024-03-26T11:55:20.692Z,11.55
2024-03-26T11:56:22.958Z,11.46
2024-03-26T11:57:20.695Z,11.56
2024-03-26T11:58:20.695Z,11.46
2024-03-26T11:59:20.698Z,11.46
2024-03-26T12:00:20.698Z,11.46
2024-03-26T12:01:20.701Z,11.27
2024-03-26T12:02:20.707Z,11.85
2024-03-26T12:03:20.718Z,11.94
2024-03-26T12:04:20.704Z,11.75
2024-03-26T12:05:20.725Z,11.85
2024-03-26T12:06:20.706Z,11.75
2024-03-26T12:07:20.709Z,11.75
2024-03-26T12:08:20.712Z,11.75
2024-03-26T12:09:20.724Z,11.75
2024-03-26T12:10:20.712Z,11.75
2024-03-26T12:11:20.716Z,11.65
2024-03-26T12:12:20.715Z,11.85
2024-03-26T12:13:20.726Z,11.85
2024-03-26T12:14:20.720Z,11.85
2024-03-26T12:15:20.722Z,11.75
2024-03-26T12:16:20.796Z,11.65
2024-03-26T12:17:20.723Z,11.65
2024-03-26T12:18:20.723Z,11.75
2024-03-26T12:19:20.742Z,11.85
2024-03-26T12:20:20.731Z,11.75
2024-03-26T12:21:20.727Z,11.94
2024-03-26T12:22:20.738Z,11.36
2024-03-26T12:23:20.736Z,11.55
2024-03-26T12:24:20.734Z,11.55
2024-03-26T12:25:20.783Z,11.55
2024-03-26T12:26:20.761Z,11.75
2024-03-26T12:27:20.735Z,11.65
2024-03-26T12:28:20.743Z,11.55
2024-03-26T12:29:20.735Z,11.36
2024-03-26T12:30:20.749Z,11.36
2024-03-26T12:31:20.740Z,11.36
2024-03-26T12:32:20.743Z,11.55
2024-03-26T12:33:20.744Z,11.46
2024-03-26T12:34:20.749Z,11.75
2024-03-26T12:35:20.784Z,11.55
2024-03-26T12:36:20.749Z,11.45
2024-03-26T12:37:20.766Z,11.65
2024-03-26T12:38:20.753Z,11.75
2024-03-26T12:39:20.752Z,11.65
2024-03-26T12:40:20.758Z,11.85
2024-03-26T12:41:20.753Z,11.75
2024-03-26T12:42:20.759Z,11.85
2024-03-26T12:43:20.767Z,11.75
2024-03-26T12:44:21.664Z,11.85
2024-03-26T12:45:20.761Z,11.85
2024-03-26T12:46:20.763Z,11.75
2024-03-26T12:47:20.763Z,11.94
2024-03-26T12:48:20.765Z,11.85
2024-03-26T12:49:20.764Z,11.75
2024-03-26T12:50:20.769Z,11.75
2024-03-26T12:51:20.782Z,11.75
2024-03-26T12:52:20.777Z,11.85
2024-03-26T12:53:20.771Z,11.75
2024-03-26T12:54:20.775Z,11.55
2024-03-26T12:55:20.783Z,11.85
2024-03-26T12:56:20.783Z,11.85
2024-03-26T12:57:20.776Z,11.36
2024-03-26T12:58:20.783Z,11.46
2024-03-26T12:59:20.795Z,11.46
2024-03-26T13:00:20.782Z,11.46
2024-03-26T13:01:20.790Z,11.36
2024-03-26T13:02:20.787Z,11.36
2024-03-26T13:03:20.785Z,11.17
2024-03-26T13:04:20.792Z,11.17
2024-03-26T13:05:20.789Z,11.27